Date,TemperatureHighF,TemperatureAvgF,TemperatureLowF,DewpointHighF,DewpointAvgF,DewpointLowF,HumidityHigh,HumidityAvg,HumidityLow,PressureMaxIn,PressureMinIn,WindSpeedMaxMPH,WindSpeedAvgMPH,GustSpeedMaxMPH,PrecipitationSumIn
2013-3-1,27,24,22,21,19,16,88,79,70,30.42,30.26,16,6,21,0.00
2013-3-2,34,26,19,22,18,15,85,73,59,30.41,30.14,9,3,11,0.00
2013-3-3,37,31,25,29,25,21,87,78,71,30.14,29.75,17,8,25,0.00
2013-3-4,40,34,29,30,27,21,93,78,66,30.03,29.70,17,6,29,0.00
2013-3-5,31,26,22,22,19,16,81,75,64,30.44,30.02,34,14,42,0.00
2013-3-6,37,28,20,24,20,16,85,74,54,30.48,30.29,11,4,16,0.00
2013-3-7,47,33,22,31,25,19,86,73,53,30.31,30.13,17,9,22,0.00
2013-3-8,52,40,28,39,32,25,91,74,58,30.22,29.92,19,8,27,0.13
2013-3-9,51,44,34,49,42,33,96,93,89,29.91,29.55,16,7,27,0.14
2013-3-10,34,27,21,32,26,20,97,95,94,29.98,29.69,25,13,35,0.00
2013-3-11,30,24,20,22,19,17,94,81,65,30.04,29.92,19,8,25,0.02
2013-3-12,32,28,23,24,22,18,87,78,70,30.36,30.05,27,11,36,0.02
2013-3-13,36,27,16,23,18,13,88,71,54,30.50,30.28,10,3,12,0.07
2013-3-14,53,42,33,42,32,23,79,68,60,30.27,30.05,18,6,25,0.01
2013-3-15,56,45,36,43,38,34,94,79,59,30.05,29.70,14,5,22,0.00
2013-3-16,37,30,27,36,27,22,94,85,74,30.22,29.84,18,7,28,0.00
2013-3-17,43,32,22,34,25,18,94,76,57,30.20,29.77,18,8,23,0.00
2013-3-18,34,31,26,33,22,15,96,70,49,30.07,29.70,32,11,43,0.07
2013-3-19,48,30,19,29,18,12,78,62,35,30.36,30.07,19,6,30,0.00
2013-3-20,33,23,14,15,9,4,76,57,40,30.44,30.16,23,8,27,0.00
2013-3-21,31,25,18,20,14,12,79,65,50,30.16,29.96,11,5,18,0.00
2013-3-22,33,28,23,21,19,17,80,69,56,30.07,30.01,10,4,14,0.00
2013-3-23,35,30,27,28,25,20,95,81,59,30.15,30.06,11,5,18,0.00
2013-3-24,28,26,24,27,22,19,95,86,73,30.12,30.06,20,10,28,0.00
2013-3-25,29,26,23,24,22,18,93,84,72,30.39,30.12,21,11,28,0.00
2013-3-26,40,26,17,25,18,13,88,74,53,30.43,30.30,7,3,13,0.00
2013-3-27,50,38,26,33,24,-100,84,63,48,30.31,30.20,16,-25,21,0.00
2013-3-28,57,45,31,35,32,28,88,62,38,30.27,30.14,11,3,14,0.00
2013-3-29,67,52,36,40,35,32,87,55,28,30.22,30.00,18,6,26,0.00
2013-3-30,63,55,47,53,44,35,94,69,41,30.04,29.86,18,6,22,0.09
2013-3-31,54,44,29,40,32,24,95,68,32,30.15,29.91,19,7,27,0.01